Time;durP1;ratioP1;P1;durP2;ratioP2;P2;SDS_P1;SDS_P2;PMS_P1;PMS_P2;Temp;Humidity;BMP_temperature;BMP_pressure;BME280_temperature;BME280_humidity;BME280_pressure;Samples;Min_cycle;Max_cycle;Signal;HPM_P1;HPM_P2
2022/05/28 00:01:10;;;;;;;8.48;5.03;;;;;;;9.12;100.00;97853.50;1787553;80;21845;-84
2022/05/28 00:03:36;;;;;;;5.85;4.45;;;;;;;9.09;99.28;97856.22;1787705;80;21152;-86
2022/05/28 00:06:03;;;;;;;7.20;5.50;;;;;;;9.09;100.00;97849.45;1788009;80;21279;-85
2022/05/28 00:08:29;;;;;;;8.20;5.20;;;;;;;9.13;99.39;97847.81;1787571;80;21001;-84
2022/05/28 00:10:56;;;;;;;8.63;5.58;;;;;;;9.17;100.00;97842.14;1778997;80;20899;-85
2022/05/28 00:13:23;;;;;;;9.00;5.35;;;;;;;9.19;100.00;97848.62;1763304;80;21076;-85
2022/05/28 00:15:50;;;;;;;6.05;4.33;;;;;;;9.20;100.00;97846.98;1787452;80;21039;-84
2022/05/28 00:18:16;;;;;;;6.15;5.00;;;;;;;9.22;100.00;97844.00;1778040;78;21094;-85
2022/05/28 00:20:42;;;;;;;9.38;6.47;;;;;;;9.19;98.84;97840.51;1787491;80;20892;-84
2022/05/28 00:23:08;;;;;;;10.40;4.78;;;;;;;9.18;100.00;97849.16;1787529;78;21119;-84
2022/05/28 00:25:34;;;;;;;9.50;5.00;;;;;;;9.14;100.00;97841.86;1783091;80;21824;-83
2022/05/28 00:28:00;;;;;;;9.95;5.58;;;;;;;9.12;99.48;97842.14;1787591;78;20834;-84
2022/05/28 00:30:26;;;;;;;6.75;4.47;;;;;;;9.13;99.50;97841.59;1787584;80;21028;-85
2022/05/28 00:32:52;;;;;;;10.05;6.05;;;;;;;9.12;100.00;97839.98;1785188;78;20928;-84
2022/05/28 00:35:19;;;;;;;9.95;5.00;;;;;;;9.11;99.13;97838.37;1787917;80;20960;-84
2022/05/28 00:37:46;;;;;;;6.67;4.75;;;;;;;9.09;99.77;97829.19;1787998;78;21160;-85
2022/05/28 00:40:19;;;;;;;6.03;4.55;;;;;;;9.09;99.45;97822.97;1783330;80;20976;-85
2022/05/28 00:42:45;;;;;;;7.25;4.90;;;;;;;9.08;98.30;97815.41;1756601;80;21049;-85
2022/05/28 00:45:11;;;;;;;10.03;4.95;;;;;;;9.03;97.20;97813.52;1760581;80;20959;-84
2022/05/28 00:47:39;;;;;;;6.87;5.17;;;;;;;8.99;97.23;97817.86;1763989;80;21013;-84
2022/05/28 00:50:06;;;;;;;7.17;4.60;;;;;;;8.97;98.03;97813.80;1764693;80;21061;-84
2022/05/28 00:52:33;;;;;;;6.58;5.10;;;;;;;8.91;98.26;97810.86;1763100;80;21658;-86
2022/05/28 00:54:59;;;;;;;8.28;5.15;;;;;;;8.87;97.68;97814.63;1787793;80;21052;-85
2022/05/28 00:57:25;;;;;;;10.63;6.42;;;;;;;8.77;98.96;97813.30;1788005;80;21527;-85
2022/05/28 00:59:51;;;;;;;11.43;5.35;;;;;;;8.74;98.45;97818.72;1787922;80;20869;-84
2022/05/28 01:02:22;;;;;;;13.62;5.78;;;;;;;8.71;98.81;97824.64;1788106;78;21906;-84
2022/05/28 01:04:56;;;;;;;7.30;5.58;;;;;;;8.73;98.63;97821.16;1787821;80;20984;-84
2022/05/28 01:07:34;;;;;;;7.33;5.70;;;;;;;8.75;98.52;97825.73;1785299;78;22143;-83
2022/05/28 01:10:11;;;;;;;8.33;5.22;;;;;;;8.73;99.94;97825.20;1787845;80;21071;-84
2022/05/28 01:12:57;;;;;;;9.20;4.53;;;;;;;8.73;99.81;97814.40;1782364;80;21046;-84
2022/05/28 01:15:33;;;;;;;8.25;4.40;;;;;;;8.76;99.23;97814.39;1783764;80;21137;-85
2022/05/28 01:18:13;;;;;;;9.08;4.95;;;;;;;8.79;97.95;97807.63;1786753;78;21000;-85
2022/05/28 01:20:43;;;;;;;8.53;4.87;;;;;;;8.80;98.18;97807.34;1787935;80;21479;-84
2022/05/28 01:23:32;;;;;;;8.85;4.87;;;;;;;8.86;97.82;97806.26;1775489;78;21059;-84
2022/05/28 01:26:45;;;;;;;8.70;5.17;;;;;;;8.91;98.43;97802.20;1787783;80;21024;-83
2022/05/28 01:29:13;;;;;;;9.85;5.37;;;;;;;8.94;99.11;97807.05;1788050;78;21183;-85
2022/05/28 01:31:39;;;;;;;10.05;6.03;;;;;;;8.96;99.43;97812.98;1788078;80;21016;-85
2022/05/28 01:34:07;;;;;;;9.55;5.55;;;;;;;8.97;98.41;97823.25;1785441;80;21092;-84
2022/05/28 01:36:33;;;;;;;8.78;5.78;;;;;;;8.97;98.74;97813.80;1788129;80;21071;-85
2022/05/28 01:38:59;;;;;;;13.40;7.00;;;;;;;8.99;97.32;97798.14;1764859;80;21439;-84
2022/05/28 01:41:25;;;;;;;17.73;9.23;;;;;;;8.97;97.66;97814.63;1756106;80;21869;-84
2022/05/28 01:43:51;;;;;;;15.28;7.20;;;;;;;9.01;97.53;97815.69;1777387;80;20880;-84
2022/05/28 01:46:19;;;;;;;10.38;6.62;;;;;;;9.03;100.00;97808.65;1756579;81;20871;-85
2022/05/28 01:48:45;;;;;;;8.57;5.73;;;;;;;9.03;99.57;97808.65;1762321;80;21063;-83
2022/05/28 01:51:12;;;;;;;9.10;6.67;;;;;;;9.02;99.14;97813.25;1787970;80;21007;-83
2022/05/28 01:56:22;;;;;;;11.85;7.78;;;;;;;9.04;98.24;97811.62;1787913;80;21000;-83
2022/05/28 01:58:48;;;;;;;12.10;7.37;;;;;;;9.11;97.99;97815.39;1779928;78;20930;-85
2022/05/28 02:01:14;;;;;;;9.53;6.33;;;;;;;9.13;97.70;97813.22;1756075;81;21015;-85
2022/05/28 02:03:43;;;;;;;10.78;6.67;;;;;;;9.15;98.23;97818.64;1777519;80;21543;-85
2022/05/28 02:06:09;;;;;;;9.28;6.92;;;;;;;9.12;97.59;97811.59;1787983;80;21772;-85
2022/05/28 02:08:37;;;;;;;11.30;6.42;;;;;;;9.11;97.81;97810.79;1785039;78;20969;-84
2022/05/28 02:11:27;;;;;;;10.50;6.85;;;;;;;9.16;97.56;97809.44;1788066;80;21000;-85
2022/05/28 02:14:29;;;;;;;8.98;6.65;;;;;;;9.15;97.68;97812.42;1788037;80;21052;-85
2022/05/28 02:17:06;;;;;;;11.40;5.78;;;;;;;9.09;97.49;97813.52;1787993;78;20994;-84
2022/05/28 02:19:46;;;;;;;6.92;5.17;;;;;;;9.01;98.07;97812.17;1787567;80;21071;-84
2022/05/28 02:22:24;;;;;;;11.95;5.47;;;;;;;8.96;98.43;97815.69;1787818;80;21028;-86
2022/05/28 02:24:56;;;;;;;8.35;5.20;;;;;;;8.91;98.72;97805.45;1776523;80;21079;-86
2022/05/28 02:27:23;;;;;;;8.28;5.65;;;;;;;8.86;98.84;97816.26;1787859;80;21019;-85
2022/05/28 02:29:49;;;;;;;10.32;6.65;;;;;;;8.76;99.04;97811.14;1787750;80;21079;-84
2022/05/28 02:32:19;;;;;;;11.90;6.65;;;;;;;8.75;98.24;97808.72;1785410;80;21969;-83
2022/05/28 02:34:45;;;;;;;11.38;7.67;;;;;;;8.73;97.83;97809.00;1787824;80;21012;-85
2022/05/28 02:37:15;;;;;;;10.55;6.00;;;;;;;8.68;99.15;97810.34;1785443;78;22071;-84
2022/05/28 02:39:41;;;;;;;10.08;5.00;;;;;;;8.62;100.00;97813.31;1783495;80;21044;-83
2022/05/28 02:42:07;;;;;;;13.25;5.10;;;;;;;8.55;99.13;97806.05;1787772;80;20894;-85
2022/05/28 02:44:33;;;;;;;8.88;5.03;;;;;;;8.46;99.72;97806.59;1773448;80;21251;-85
2022/05/28 02:46:59;;;;;;;7.35;5.30;;;;;;;8.40;100.00;97800.92;1787799;80;21623;-85
2022/05/28 02:49:25;;;;;;;18.37;5.50;;;;;;;8.35;99.08;97799.56;1769244;80;20889;-85
2022/05/28 02:51:52;;;;;;;8.05;5.47;;;;;;;8.29;99.21;97801.14;1788100;78;21429;-84
2022/05/28 02:54:19;;;;;;;9.68;5.53;;;;;;;8.23;100.00;97794.14;1779155;80;21005;-85
2022/05/28 02:56:46;;;;;;;6.17;4.67;;;;;;;8.22;98.52;97798.73;1756155;80;21304;-85
2022/05/28 02:59:12;;;;;;;10.88;6.10;;;;;;;8.14;98.97;97789.28;1784574;80;21034;-85
2022/05/28 03:01:38;;;;;;;9.70;4.95;;;;;;;8.11;99.09;97785.75;1787839;78;21436;-85
2022/05/28 03:04:05;;;;;;;11.08;7.42;;;;;;;8.09;98.20;97784.41;1779573;80;21309;-85
2022/05/28 03:06:31;;;;;;;12.50;5.55;;;;;;;8.05;98.35;97788.20;1756160;80;21073;-84
2022/05/28 03:08:57;;;;;;;6.87;5.47;;;;;;;8.03;97.51;97792.22;1778958;80;21113;-85
2022/05/28 03:11:23;;;;;;;8.60;5.45;;;;;;;8.01;97.94;97787.10;1787681;80;20944;-84
2022/05/28 03:13:49;;;;;;;8.78;5.45;;;;;;;7.96;97.93;97787.11;1770637;78;21618;-85
2022/05/28 03:16:15;;;;;;;11.70;5.92;;;;;;;7.95;98.89;97788.20;1756089;81;20930;-85
2022/05/28 03:18:41;;;;;;;8.50;5.58;;;;;;;7.98;99.07;97786.84;1774968;80;20992;-83
2022/05/28 03:21:07;;;;;;;10.48;5.85;;;;;;;7.99;98.90;97790.61;1787836;80;21188;-83
2022/05/28 03:23:33;;;;;;;8.65;5.70;;;;;;;7.97;97.93;97791.42;1784973;80;21633;-85
2022/05/28 03:26:15;;;;;;;10.45;5.47;;;;;;;7.97;99.17;97787.92;1757081;80;20843;-84
2022/05/28 03:28:42;;;;;;;7.72;5.10;;;;;;;8.00;100.00;97790.07;1779461;80;21510;-84
2022/05/28 03:31:08;;;;;;;8.38;5.55;;;;;;;8.03;99.86;97788.17;1787912;80;21039;-86
2022/05/28 03:33:34;;;;;;;7.10;5.75;;;;;;;8.10;99.50;97792.23;1787672;78;21919;-84
2022/05/28 03:35:59;;;;;;;10.70;5.83;;;;;;;8.21;98.57;97793.07;1787765;80;20869;-85
2022/05/28 03:38:25;;;;;;;8.20;6.03;;;;;;;8.28;98.27;97788.19;1783587;78;20940;-84
2022/05/28 03:40:51;;;;;;;10.18;5.12;;;;;;;8.33;98.47;97788.74;1785428;80;20818;-84
2022/05/28 03:43:17;;;;;;;10.32;6.75;;;;;;;8.40;98.04;97785.27;1773736;78;20908;-84
2022/05/28 03:45:43;;;;;;;10.63;5.65;;;;;;;8.49;98.00;97782.28;1787342;80;21109;-84
2022/05/28 03:48:10;;;;;;;8.60;5.75;;;;;;;8.59;97.77;97782.81;1787476;80;21409;-85
2022/05/28 03:50:37;;;;;;;7.25;5.10;;;;;;;8.64;97.66;97779.57;1787844;80;21003;-85
2022/05/28 03:53:03;;;;;;;10.55;5.47;;;;;;;8.70;98.15;97781.16;1785042;78;21468;-85
2022/05/28 03:55:28;;;;;;;11.03;5.05;;;;;;;8.74;98.07;97784.14;1787854;80;20940;-84
2022/05/28 03:57:54;;;;;;;9.40;4.97;;;;;;;8.76;97.86;97782.77;1785067;78;21845;-84
2022/05/28 04:00:20;;;;;;;9.73;5.25;;;;;;;8.86;97.67;97787.34;1787729;80;20869;-84
2022/05/28 04:02:46;;;;;;;14.45;7.78;;;;;;;8.97;98.13;97783.55;1787893;78;20969;-85
2022/05/28 04:05:12;;;;;;;10.95;6.83;;;;;;;9.08;97.14;97777.56;1787770;80;20838;-83
2022/05/28 04:07:39;;;;;;;7.30;5.95;;;;;;;9.12;96.93;97777.81;1788095;78;21023;-85
2022/05/28 04:10:05;;;;;;;10.25;5.58;;;;;;;9.21;96.78;97775.61;1788099;80;21157;-85
2022/05/28 04:12:31;;;;;;;13.38;7.12;;;;;;;9.27;96.73;97777.76;1788002;78;21115;-84
2022/05/28 04:14:58;;;;;;;12.82;6.55;;;;;;;9.37;96.24;97776.91;1788193;80;21608;-84
2022/05/28 04:17:24;;;;;;;9.65;5.80;;;;;;;9.39;95.99;97778.78;1785321;80;21014;-84
2022/05/28 04:19:50;;;;;;;9.28;5.90;;;;;;;9.45;95.78;97779.84;1772480;80;20965;-84
2022/05/28 04:22:16;;;;;;;9.58;4.90;;;;;;;9.53;95.61;97777.91;1758641;80;21477;-85
2022/05/28 04:24:42;;;;;;;8.03;5.15;;;;;;;9.59;95.22;97774.09;1788107;80;20850;-85
2022/05/28 04:27:08;;;;;;;9.08;5.87;;;;;;;9.62;94.95;97770.02;1786468;78;21106;-85
2022/05/28 04:29:34;;;;;;;8.18;5.65;;;;;;;9.72;95.20;97768.59;1787206;80;20874;-84
2022/05/28 04:32:00;;;;;;;11.35;5.10;;;;;;;9.92;94.59;97773.63;1787804;80;20964;-85
2022/05/28 04:34:26;;;;;;;8.78;4.75;;;;;;;9.96;94.30;97770.61;1777498;80;21903;-85
2022/05/28 04:36:51;;;;;;;5.75;4.05;;;;;;;10.08;94.08;97776.47;1756155;81;21662;-84
2022/05/28 04:39:17;;;;;;;6.45;4.70;;;;;;;10.20;94.07;97772.06;1782586;80;20889;-85
2022/05/28 04:41:43;;;;;;;8.10;4.85;;;;;;;10.35;93.61;97779.56;1774819;80;20909;-85
2022/05/28 04:44:09;;;;;;;8.53;4.60;;;;;;;10.40;92.86;97772.72;1775010;80;20886;-85
2022/05/28 04:46:35;;;;;;;9.23;4.90;;;;;;;10.52;92.75;97782.40;1787871;79;21154;-85
2022/05/28 04:49:01;;;;;;;4.62;3.60;;;;;;;10.66;92.65;97781.97;1778151;80;21430;-86
2022/05/28 04:51:27;;;;;;;9.63;3.90;;;;;;;10.84;91.88;97783.95;1756254;80;20965;-86
2022/05/28 04:53:53;;;;;;;5.80;4.28;;;;;;;10.95;91.38;97784.68;1780668;80;20968;-84
2022/05/28 04:56:19;;;;;;;10.48;5.00;;;;;;;11.07;91.07;97791.05;1787777;80;20968;-84
2022/05/28 04:58:45;;;;;;;6.65;4.08;;;;;;;11.18;90.99;97786.57;1787691;78;21032;-84
2022/05/28 05:01:16;;;;;;;7.55;3.15;;;;;;;11.43;90.20;97781.39;1787768;80;20897;-86
2022/05/28 05:03:43;;;;;;;6.75;3.90;;;;;;;11.64;89.51;97788.73;1783413;80;21037;-86
2022/05/28 05:06:09;;;;;;;8.05;3.22;;;;;;;11.90;88.85;97791.93;1787969;80;20863;-85
2022/05/28 05:08:34;;;;;;;5.92;2.87;;;;;;;12.09;88.30;97782.41;1784985;78;20889;-86
2022/05/28 05:11:00;;;;;;;4.05;3.30;;;;;;;12.24;87.88;97788.98;1787893;80;20992;-84
2022/05/28 05:13:26;;;;;;;8.73;3.12;;;;;;;12.39;87.77;97789.26;1784984;80;20985;-86
2022/05/28 05:15:52;;;;;;;9.23;2.83;;;;;;;12.45;87.58;97788.08;1787896;80;20893;-86
2022/05/28 05:18:18;;;;;;;7.15;3.17;;;;;;;12.56;86.47;97796.34;1787698;80;20893;-85
2022/05/28 05:20:44;;;;;;;4.75;3.22;;;;;;;12.79;85.50;97793.76;1788035;80;21551;-86
2022/05/28 05:23:10;;;;;;;7.65;2.92;;;;;;;12.97;85.92;97795.04;1775257;78;21458;-85
2022/05/28 05:25:36;;;;;;;6.33;3.10;;;;;;;13.20;85.34;97792.48;1786494;80;21570;-86
2022/05/28 05:28:02;;;;;;;6.30;3.08;;;;;;;13.32;84.22;97790.61;1787933;80;20884;-84
2022/05/28 05:30:28;;;;;;;6.10;3.00;;;;;;;13.38;83.99;97790.77;1783614;80;21048;-86
2022/05/28 05:32:55;;;;;;;6.50;2.77;;;;;;;13.28;83.36;97789.61;1787996;80;20944;-85
2022/05/28 05:35:21;;;;;;;9.10;3.17;;;;;;;13.23;82.80;97797.31;1788133;80;22307;-84
2022/05/28 05:37:47;;;;;;;6.47;2.62;;;;;;;13.19;82.50;97793.03;1787773;78;21011;-85
2022/05/28 05:40:13;;;;;;;5.87;2.98;;;;;;;13.41;81.67;97798.31;1767286;80;21059;-85
2022/05/28 05:42:39;;;;;;;7.47;3.10;;;;;;;13.66;81.12;97794.26;1776493;80;21377;-84
2022/05/28 05:45:06;;;;;;;9.53;2.45;;;;;;;13.78;80.55;97794.56;1779694;80;21055;-84
2022/05/28 05:47:32;;;;;;;6.95;3.25;;;;;;;13.74;79.68;97800.34;1787845;80;21416;-85
2022/05/28 05:49:59;;;;;;;10.15;3.22;;;;;;;13.94;79.69;97797.20;1787697;80;21567;-86
2022/05/28 05:52:25;;;;;;;4.37;1.98;;;;;;;13.99;68.87;97796.27;1787711;80;20953;-86
2022/05/28 05:54:52;;;;;;;6.03;2.98;;;;;;;14.23;73.82;97800.88;1788341;80;20943;-85
2022/05/28 05:57:17;;;;;;;9.05;2.65;;;;;;;14.35;70.78;97801.13;1786914;78;21023;-84
2022/05/28 05:59:43;;;;;;;11.03;2.80;;;;;;;14.52;68.22;97803.20;1770658;80;21205;-85
2022/05/28 06:02:10;;;;;;;7.35;2.37;;;;;;;14.60;65.38;97806.55;1787752;80;20877;-84
2022/05/28 06:04:36;;;;;;;7.37;2.58;;;;;;;14.44;67.22;97799.85;1769570;80;21377;-86
2022/05/28 06:07:06;;;;;;;6.47;2.10;;;;;;;14.25;63.93;97797.84;1787894;78;20993;-86
2022/05/28 06:09:32;;;;;;;7.50;1.70;;;;;;;14.45;65.37;97803.38;1776432;80;21483;-86
2022/05/28 06:11:58;;;;;;;12.50;2.10;;;;;;;14.29;64.99;97794.20;1756237;80;21119;-86
2022/05/28 06:14:24;;;;;;;8.88;2.17;;;;;;;14.20;65.58;97789.25;1773290;80;21000;-86
2022/05/28 06:16:50;;;;;;;6.60;2.25;;;;;;;14.29;65.69;97792.03;1787711;78;21686;-86
2022/05/28 06:19:16;;;;;;;4.25;1.85;;;;;;;14.47;64.16;97792.44;1785808;80;21036;-84
2022/05/28 06:21:42;;;;;;;5.83;1.55;;;;;;;14.65;60.94;97792.80;1787960;78;20992;-84
2022/05/28 06:24:08;;;;;;;6.17;1.60;;;;;;;14.91;60.77;97783.95;1787898;80;21170;-86
2022/05/28 06:26:34;;;;;;;4.92;1.98;;;;;;;15.14;61.41;97780.62;1787870;78;20830;-84
2022/05/28 06:29:00;;;;;;;6.37;2.05;;;;;;;15.15;58.60;97780.30;1788021;80;21071;-85
2022/05/28 06:31:26;;;;;;;9.33;1.87;;;;;;;15.07;56.51;97779.70;1787962;78;20932;-86
2022/05/28 06:33:52;;;;;;;5.45;1.65;;;;;;;14.95;56.76;97776.20;1773700;80;20877;-84
2022/05/28 06:36:18;;;;;;;11.33;2.30;;;;;;;14.81;54.67;97775.48;1787971;80;21908;-85
2022/05/28 06:38:45;;;;;;;6.28;1.72;;;;;;;14.76;56.21;97770.70;1783390;78;21363;-84
2022/05/28 06:41:12;;;;;;;7.20;2.30;;;;;;;15.05;56.47;97772.95;1787888;80;22175;-87
2022/05/28 06:43:38;;;;;;;3.12;1.47;;;;;;;15.00;56.86;97766.27;1787701;78;20998;-86
2022/05/28 06:46:06;;;;;;;6.53;1.50;;;;;;;14.95;56.56;97767.19;1788077;80;21556;-86
2022/05/28 06:48:32;;;;;;;6.83;2.10;;;;;;;15.01;55.83;97763.77;1785204;78;21122;-84
2022/05/28 06:51:04;;;;;;;7.53;1.98;;;;;;;14.95;56.78;97760.37;1788065;80;20940;-86
2022/05/28 06:53:40;;;;;;;5.97;2.12;;;;;;;15.09;57.19;97764.38;1773593;78;21023;-85
2022/05/28 06:56:07;;;;;;;8.58;1.55;;;;;;;15.33;56.21;97760.69;1787833;80;20998;-84
2022/05/28 06:58:33;;;;;;;9.33;1.75;;;;;;;15.27;55.57;97759.22;1784614;80;21488;-86
2022/05/28 07:00:59;;;;;;;9.73;1.95;;;;;;;15.31;56.48;97756.68;1786945;80;21139;-86
2022/05/28 07:03:26;;;;;;;6.28;1.85;;;;;;;15.33;54.79;97759.89;1787693;80;20993;-87
2022/05/28 07:05:53;;;;;;;4.15;2.10;;;;;;;15.47;54.11;97753.75;1787921;80;21027;-84
2022/05/28 07:08:19;;;;;;;6.62;2.02;;;;;;;15.70;55.68;97751.72;1784183;79;20989;-84
2022/05/28 07:10:48;;;;;;;5.85;2.17;;;;;;;15.51;51.21;97750.05;1740988;80;22257;-85
2022/05/28 07:13:15;;;;;;;8.13;2.10;;;;;;;15.34;53.56;97748.65;1784303;78;21299;-85
2022/05/28 07:15:40;;;;;;;9.75;2.22;;;;;;;14.93;51.92;97744.32;1755994;80;21005;-86
2022/05/28 07:18:07;;;;;;;6.60;1.75;;;;;;;14.83;52.86;97753.34;1757545;80;20922;-86
2022/05/28 07:20:33;;;;;;;6.67;1.90;;;;;;;14.45;54.22;97749.70;1787894;80;20991;-84
2022/05/28 07:22:58;;;;;;;9.75;1.65;;;;;;;14.12;54.43;97749.11;1787781;78;20968;-84
2022/05/28 07:25:24;;;;;;;15.50;2.50;;;;;;;13.66;55.55;97752.86;1787908;80;21213;-86
2022/05/28 07:27:50;;;;;;;5.58;1.82;;;;;;;13.55;57.90;97751.48;1787554;80;20861;-85
2022/05/28 07:30:16;;;;;;;8.50;2.25;;;;;;;13.57;58.75;97751.97;1788159;80;20969;-84
2022/05/28 07:32:42;;;;;;;6.37;2.02;;;;;;;13.60;59.65;97754.11;1773467;80;20947;-84
2022/05/28 07:35:08;;;;;;;6.60;2.00;;;;;;;13.55;59.26;97748.77;1787935;80;20869;-84
2022/05/28 07:37:34;;;;;;;6.70;1.95;;;;;;;14.31;55.97;97747.55;1784753;78;21120;-84
2022/05/28 07:40:00;;;;;;;7.33;2.98;;;;;;;15.32;57.22;97741.34;1785084;80;21530;-86
2022/05/28 07:42:29;;;;;;;7.22;2.00;;;;;;;16.30;55.77;97733.96;1770001;80;20861;-84
2022/05/28 07:44:55;;;;;;;6.67;2.00;;;;;;;16.60;52.09;97723.95;1777744;80;20977;-87
2022/05/28 07:47:21;;;;;;;7.30;2.77;;;;;;;17.26;48.96;97720.83;1787817;78;20893;-84
2022/05/28 07:49:47;;;;;;;6.05;2.40;;;;;;;17.75;47.57;97712.95;1787511;80;21954;-84
2022/05/28 07:52:12;;;;;;;5.58;1.70;;;;;;;17.65;44.23;97714.70;1787473;78;20928;-84
2022/05/28 07:54:38;;;;;;;4.37;1.82;;;;;;;17.73;48.64;97711.92;1787986;80;20837;-85
2022/05/28 07:57:05;;;;;;;5.97;2.10;;;;;;;17.44;49.48;97712.75;1786816;78;20881;-84
2022/05/28 07:59:31;;;;;;;7.12;1.77;;;;;;;16.81;50.13;97713.12;1775073;80;21074;-84
2022/05/28 08:01:57;;;;;;;11.90;2.42;;;;;;;16.52;51.56;97708.36;1756196;81;21156;-84
2022/05/28 08:04:23;;;;;;;8.55;2.75;;;;;;;15.82;52.00;97712.86;1772906;80;20933;-86
2022/05/28 08:06:49;;;;;;;6.67;2.60;;;;;;;15.45;54.10;97724.58;1787733;78;21563;-87
2022/05/28 08:09:15;;;;;;;4.30;2.05;;;;;;;14.56;56.37;97729.23;1775500;79;20923;-86
2022/05/28 08:11:41;;;;;;;9.13;2.60;;;;;;;14.10;57.11;97726.83;1766945;80;20873;-86
2022/05/28 08:14:07;;;;;;;8.05;2.30;;;;;;;13.66;59.72;97725.63;1782803;80;21685;-85
2022/05/28 08:16:33;;;;;;;4.97;2.65;;;;;;;13.55;60.43;97725.62;1787253;78;20873;-86
2022/05/28 08:18:59;;;;;;;6.47;3.27;;;;;;;13.20;61.95;97717.11;1759803;80;21032;-84
2022/05/28 08:24:09;;;;;;;8.85;2.15;;;;;;;15.57;58.73;97706.22;1784558;80;21012;-84
2022/05/28 08:26:35;;;;;;;5.55;2.25;;;;;;;15.90;56.06;97703.30;1787714;80;21826;-85
2022/05/28 08:29:02;;;;;;;11.90;2.85;;;;;;;15.68;54.38;97704.25;1748797;81;20885;-85
2022/05/28 08:31:29;;;;;;;10.45;2.33;;;;;;;15.58;55.79;97707.83;1776967;80;21099;-86
2022/05/28 08:33:56;;;;;;;5.67;2.37;;;;;;;15.51;56.26;97721.38;1750035;80;21023;-86
2022/05/28 08:36:22;;;;;;;5.00;1.85;;;;;;;15.19;53.78;97728.05;1754672;80;21088;-86
2022/05/28 08:38:48;;;;;;;4.15;2.30;;;;;;;14.98;54.46;97735.77;1759845;80;21833;-86
2022/05/28 08:41:19;;;;;;;10.68;3.98;;;;;;;14.88;55.17;97726.74;1778880;80;20987;-85
2022/05/28 08:44:05;;;;;;;8.08;3.02;;;;;;;16.52;53.78;97722.03;1776419;79;21012;-84
2022/05/28 08:46:34;;;;;;;10.05;4.65;;;;;;;17.97;51.79;97718.12;1737096;81;20963;-87
2022/05/28 08:49:01;;;;;;;6.80;2.65;;;;;;;19.44;46.96;97717.08;1768386;80;21005;-84
2022/05/28 08:51:52;;;;;;;12.15;3.02;;;;;;;20.83;47.55;97701.25;1778845;79;21570;-86
2022/05/28 08:54:35;;;;;;;10.28;3.12;;;;;;;21.94;45.00;97698.35;1771474;80;21008;-84
2022/05/28 08:57:08;;;;;;;7.95;2.05;;;;;;;23.24;42.86;97692.13;1753420;80;20994;-84
2022/05/28 08:59:42;;;;;;;9.68;1.90;;;;;;;23.45;37.74;97682.00;1761224;80;21008;-85
2022/05/28 09:02:16;;;;;;;4.97;1.87;;;;;;;23.56;37.55;97689.27;1775808;79;21001;-86
2022/05/28 09:04:42;;;;;;;7.70;2.02;;;;;;;24.24;34.93;97688.02;1760521;80;21142;-87
2022/05/28 09:07:13;;;;;;;2.70;1.47;;;;;;;23.73;35.94;97687.97;1779187;80;21675;-87
2022/05/28 09:09:44;;;;;;;8.23;2.02;;;;;;;23.18;36.22;97685.34;1779219;80;21051;-87
2022/05/28 09:12:27;;;;;;;3.02;1.52;;;;;;;23.15;36.50;97696.53;1776339;79;20980;-87
2022/05/28 09:14:53;;;;;;;5.25;1.45;;;;;;;24.39;34.54;97681.51;1772380;80;21024;-85
2022/05/28 09:17:32;;;;;;;5.47;1.77;;;;;;;23.33;32.92;97683.82;1779452;80;21017;-87
2022/05/28 09:20:02;;;;;;;7.40;1.40;;;;;;;24.17;29.44;97676.27;1777697;80;21571;-87
2022/05/28 09:22:28;;;;;;;3.00;1.10;;;;;;;24.72;30.06;97669.59;1775461;79;21029;-84
2022/05/28 09:24:54;;;;;;;4.37;1.10;;;;;;;25.57;29.47;97686.14;1774600;80;21004;-87
2022/05/28 09:27:51;;;;;;;5.53;1.27;;;;;;;26.42;27.29;97676.09;1742142;80;21674;-87
2022/05/28 09:30:25;;;;;;;4.65;1.52;;;;;;;24.74;28.64;97668.02;1764866;80;21336;-87
2022/05/28 09:33:21;;;;;;;2.30;1.07;;;;;;;23.76;30.12;97678.14;1778301;79;21063;-85
2022/05/28 09:36:29;;;;;;;9.05;1.37;;;;;;;23.55;29.65;97666.95;1762518;80;21052;-87
2022/05/28 09:39:15;;;;;;;2.92;1.50;;;;;;;21.67;29.25;97662.33;1771076;80;21422;-87
2022/05/28 09:42:06;;;;;;;6.25;2.10;;;;;;;20.40;32.29;97666.28;1760461;79;21419;-86
2022/05/28 09:45:06;;;;;;;5.37;3.10;;;;;;;19.62;32.34;97666.24;1763033;80;21091;-86
2022/05/28 09:47:46;;;;;;;7.33;1.90;;;;;;;18.98;33.92;97671.67;1759135;79;21565;-87
2022/05/28 09:50:24;;;;;;;7.47;1.57;;;;;;;18.50;34.17;97671.22;1742064;80;21092;-83
2022/05/28 09:56:05;;;;;;;12.07;2.20;;;;;;;18.10;36.22;97686.63;1778511;80;21024;-86
2022/05/28 09:58:36;;;;;;;5.90;1.60;;;;;;;18.40;35.08;97686.75;1778850;79;21129;-86
2022/05/28 10:01:14;;;;;;;7.28;2.10;;;;;;;17.93;35.83;97672.51;1778322;80;20993;-83
2022/05/28 10:06:26;;;;;;;4.72;1.90;;;;;;;20.33;33.80;97664.70;1778908;79;21075;-87
2022/05/28 10:08:52;;;;;;;6.55;1.20;;;;;;;19.47;33.61;97666.92;1779010;80;21087;-83
2022/05/28 10:11:19;;;;;;;7.62;1.45;;;;;;;18.64;34.29;97665.44;1779407;80;21285;-86
2022/05/28 10:13:48;;;;;;;3.85;1.00;;;;;;;17.96;35.16;97669.92;1755360;80;21029;-84
2022/05/28 10:16:17;;;;;;;4.72;1.67;;;;;;;17.45;35.87;97673.27;1779131;80;21125;-86
2022/05/28 10:18:56;;;;;;;6.70;1.70;;;;;;;17.02;37.94;97668.05;1775607;80;21422;-84
2022/05/28 10:21:32;;;;;;;9.58;1.60;;;;;;;16.36;41.64;97664.89;1764759;79;21071;-86
2022/05/28 10:24:04;;;;;;;5.60;2.00;;;;;;;15.74;42.29;97667.47;1768755;80;21263;-86
2022/05/28 10:26:37;;;;;;;6.67;2.10;;;;;;;17.60;40.11;97664.20;1745120;82;21063;-87
2022/05/28 10:29:07;;;;;;;4.53;1.98;;;;;;;20.82;36.95;97653.43;1768200;80;20996;-84
2022/05/28 10:31:38;;;;;;;4.80;2.22;;;;;;;23.34;34.07;97650.86;1771376;79;20996;-84
2022/05/28 10:34:07;;;;;;;3.98;1.82;;;;;;;24.13;29.67;97644.41;1719779;80;21012;-84
2022/05/28 10:36:35;;;;;;;6.78;2.65;;;;;;;24.18;30.51;97638.55;1774772;79;21089;-88
2022/05/28 10:39:10;;;;;;;8.35;1.75;;;;;;;22.90;31.42;97637.30;1778836;80;21036;-87
2022/05/28 10:41:36;;;;;;;6.22;1.92;;;;;;;21.99;32.62;97629.70;1778915;79;21589;-87
2022/05/28 10:44:04;;;;;;;7.55;2.17;;;;;;;23.27;30.48;97636.13;1771284;80;20927;-85
2022/05/28 10:46:59;;;;;;;6.37;2.20;;;;;;;25.33;28.04;97638.23;1770959;80;20993;-87
2022/05/28 10:49:49;;;;;;;5.25;1.37;;;;;;;27.04;24.54;97643.05;1773575;80;21158;-88
2022/05/28 10:52:32;;;;;;;5.65;1.75;;;;;;;27.12;25.07;97635.69;1775349;79;21016;-88
2022/05/28 10:55:09;;;;;;;4.08;1.50;;;;;;;26.42;26.67;97624.70;1773546;80;21468;-85
2022/05/28 10:58:21;;;;;;;3.05;1.50;;;;;;;25.26;27.46;97623.73;1778973;80;21013;-85
2022/05/28 11:01:05;;;;;;;3.42;1.35;;;;;;;23.94;28.45;97621.66;1778950;80;21041;-84
2022/05/28 11:03:45;;;;;;;2.95;1.15;;;;;;;22.87;28.76;97636.09;1778871;80;22035;-85
2022/05/28 11:06:31;;;;;;;7.12;1.45;;;;;;;21.13;27.87;97631.37;1769137;80;21084;-83
2022/05/28 11:09:18;;;;;;;2.52;1.20;;;;;;;20.15;29.39;97631.80;1773545;80;21440;-84
2022/05/28 11:12:21;;;;;;;3.05;1.22;;;;;;;19.25;30.19;97649.58;1779137;79;21052;-84
2022/05/28 11:15:14;;;;;;;5.15;1.80;;;;;;;18.25;32.96;97676.41;1775213;80;21467;-84
2022/05/28 11:17:58;;;;;;;4.65;1.70;;;;;;;16.62;41.95;97691.59;1762484;80;21500;-86
2022/05/28 11:21:07;;;;;;;4.70;1.30;;;;;;;15.14;48.73;97697.39;1752602;80;21509;-84
2022/05/28 11:24:10;;;;;;;6.03;1.82;;;;;;;14.24;51.88;97700.86;1739380;80;21023;-86
2022/05/28 11:26:51;;;;;;;3.27;1.32;;;;;;;14.16;50.99;97720.11;1779264;80;21059;-84
2022/05/28 11:29:39;;;;;;;5.55;1.70;;;;;;;13.51;53.29;97726.80;1764202;80;21008;-84
2022/05/28 11:32:19;;;;;;;8.68;3.85;;;;;;;12.60;58.93;97722.59;1777538;79;21058;-83
2022/05/28 11:34:56;;;;;;;8.23;4.90;;;;;;;12.53;60.58;97718.09;1733621;81;20979;-86
2022/05/28 11:37:37;;;;;;;18.90;8.45;;;;;;;12.81;57.49;97714.86;1761250;79;21060;-84
2022/05/28 11:40:08;;;;;;;7.53;2.45;;;;;;;12.87;61.48;97716.93;1772982;80;21029;-86
2022/05/28 11:42:54;;;;;;;5.35;2.70;;;;;;;12.71;61.85;97717.22;1778653;80;21225;-86
2022/05/28 11:45:53;;;;;;;5.00;1.60;;;;;;;12.90;59.77;97721.76;1779131;80;21802;-84
2022/05/28 11:51:27;;;;;;;3.92;2.22;;;;;;;12.68;62.16;97727.89;1761120;80;20997;-83
2022/05/28 11:54:04;;;;;;;6.17;1.90;;;;;;;13.12;61.16;97730.03;1778317;80;21052;-86
2022/05/28 11:56:30;;;;;;;4.08;2.12;;;;;;;13.03;62.21;97742.72;1779395;80;21062;-83
2022/05/28 11:59:14;;;;;;;2.45;1.40;;;;;;;12.90;59.90;97762.02;1777081;80;21285;-83
2022/05/28 12:01:53;;;;;;;2.50;1.45;;;;;;;12.96;58.59;97772.23;1778617;79;20992;-86
2022/05/28 12:04:19;;;;;;;4.70;0.93;;;;;;;12.83;60.94;97784.72;1761893;80;21059;-86